Time;durP1;ratioP1;P1;durP2;ratioP2;P2;SDS_P1;SDS_P2;PMS_P1;PMS_P2;Temp;Humidity;BMP_temperature;BMP_pressure;BME280_temperature;BME280_humidity;BME280_pressure;Samples;Min_cycle;Max_cycle;Signal;HPM_P1;HPM_P2
2022/09/30 00:01:41;;;;;;;3.22;1.80;;;8.20;99.90;;;;;;4980371;28;20077;-70
2022/09/30 00:04:12;;;;;;;3.58;1.85;;;8.20;99.90;;;;;;4979991;28;20027;-70
2022/09/30 00:06:38;;;;;;;4.47;1.98;;;8.10;99.90;;;;;;4981870;28;20038;-71
2022/09/30 00:09:04;;;;;;;5.65;2.03;;;8.10;99.90;;;;;;4981577;28;20726;-70
2022/09/30 00:11:33;;;;;;;4.93;1.75;;;8.10;99.90;;;;;;4980686;28;20599;-71
2022/09/30 00:14:00;;;;;;;2.75;1.65;;;8.10;99.90;;;;;;4980657;28;20065;-71
2022/09/30 00:16:28;;;;;;;2.65;1.67;;;8.10;99.90;;;;;;4978521;28;20038;-71
2022/09/30 00:18:55;;;;;;;4.15;1.98;;;8.00;99.90;;;;;;4983045;28;20165;-71
2022/09/30 00:21:22;;;;;;;2.83;1.60;;;8.00;99.90;;;;;;4979084;28;20039;-71
2022/09/30 00:23:47;;;;;;;3.92;2.00;;;7.90;99.90;;;;;;4980966;28;20038;-70
2022/09/30 00:26:16;;;;;;;3.90;1.90;;;7.90;99.90;;;;;;4982494;28;20034;-71
2022/09/30 00:28:43;;;;;;;3.90;1.65;;;7.90;99.90;;;;;;4977788;28;20035;-70
2022/09/30 00:31:15;;;;;;;3.92;2.08;;;7.90;99.90;;;;;;4980101;28;20046;-71
2022/09/30 00:33:41;;;;;;;4.20;2.10;;;7.90;99.90;;;;;;4979251;28;20051;-70
2022/09/30 00:36:08;;;;;;;4.13;2.05;;;7.90;99.90;;;;;;4983355;28;20065;-72
2022/09/30 00:38:33;;;;;;;3.03;1.50;;;7.90;99.90;;;;;;4977578;28;20121;-71
2022/09/30 00:41:00;;;;;;;4.15;1.98;;;7.90;99.90;;;;;;4983467;28;20125;-71
2022/09/30 00:43:42;;;;;;;4.22;1.95;;;7.90;99.90;;;;;;4980815;28;20160;-72
2022/09/30 00:46:35;;;;;;;6.93;2.60;;;7.90;99.90;;;;;;4980050;28;20042;-70
2022/09/30 00:49:10;;;;;;;4.20;2.22;;;7.90;99.90;;;;;;4973618;28;20035;-71
2022/09/30 00:51:40;;;;;;;3.92;1.73;;;7.90;99.90;;;;;;4984118;28;20070;-71
2022/09/30 00:54:11;;;;;;;3.92;2.00;;;7.80;99.90;;;;;;4981642;28;20035;-70
2022/09/30 00:56:43;;;;;;;4.05;2.55;;;7.80;99.90;;;;;;4981275;28;20035;-70
2022/09/30 00:59:12;;;;;;;4.70;2.20;;;7.80;99.90;;;;;;4978631;28;20410;-71
2022/09/30 01:01:40;;;;;;;3.40;2.00;;;7.80;99.90;;;;;;4978672;28;20519;-70
2022/09/30 01:04:11;;;;;;;3.55;2.20;;;7.80;99.90;;;;;;4981498;28;20045;-71
2022/09/30 01:06:37;;;;;;;3.47;2.05;;;7.80;99.90;;;;;;4978392;28;20042;-71
2022/09/30 01:09:03;;;;;;;4.60;2.55;;;7.80;99.90;;;;;;4979811;28;20046;-70
2022/09/30 01:11:30;;;;;;;6.40;2.45;;;7.80;99.90;;;;;;4982321;28;20045;-71
2022/09/30 01:14:00;;;;;;;4.03;2.53;;;7.80;99.90;;;;;;4981474;28;20121;-71
2022/09/30 01:16:44;;;;;;;6.13;2.90;;;7.80;99.90;;;;;;4979137;28;20089;-72
2022/09/30 01:19:28;;;;;;;5.03;2.25;;;7.80;99.90;;;;;;4980774;28;20042;-73
2022/09/30 01:21:56;;;;;;;4.93;2.30;;;7.80;99.90;;;;;;4977540;28;20507;-69
2022/09/30 01:24:41;;;;;;;3.92;2.30;;;7.70;99.90;;;;;;4980252;28;20576;-71
2022/09/30 01:27:45;;;;;;;3.83;2.60;;;7.80;99.90;;;;;;4982794;28;20494;-70
2022/09/30 01:30:17;;;;;;;5.88;3.40;;;7.80;99.90;;;;;;4980102;28;20026;-70
2022/09/30 01:33:07;;;;;;;4.82;2.80;;;7.80;99.90;;;;;;4977122;28;20093;-69
2022/09/30 01:35:50;;;;;;;6.68;3.55;;;7.80;99.90;;;;;;4971182;28;20482;-69
2022/09/30 01:38:42;;;;;;;7.05;3.40;;;7.80;99.90;;;;;;4981196;28;20104;-69
2022/09/30 01:41:17;;;;;;;4.70;3.25;;;7.90;99.90;;;;;;4990436;28;20074;-70
2022/09/30 01:43:52;;;;;;;4.88;3.28;;;7.80;99.90;;;;;;4990234;28;20475;-69
2022/09/30 01:46:22;;;;;;;6.40;3.28;;;7.80;99.90;;;;;;4950394;28;20043;-68
2022/09/30 01:49:14;;;;;;;5.88;3.50;;;7.80;99.90;;;;;;4959925;28;20661;-69
2022/09/30 01:51:52;;;;;;;6.72;3.83;;;7.80;99.90;;;;;;4970316;28;20046;-70
2022/09/30 01:54:24;;;;;;;6.78;3.20;;;7.80;99.90;;;;;;4974777;28;20054;-69
2022/09/30 01:57:02;;;;;;;8.27;3.92;;;7.80;99.90;;;;;;4987315;28;20030;-69
2022/09/30 01:59:50;;;;;;;6.60;3.47;;;7.80;99.90;;;;;;4976175;28;20035;-69
2022/09/30 02:02:24;;;;;;;6.65;3.60;;;7.90;99.90;;;;;;4951540;28;20047;-69
2022/09/30 02:04:58;;;;;;;5.90;3.38;;;7.90;99.90;;;;;;4975589;28;20042;-68
2022/09/30 02:07:39;;;;;;;3.95;3.03;;;7.90;99.90;;;;;;4987664;28;20039;-69
2022/09/30 02:10:15;;;;;;;6.80;3.60;;;7.90;99.90;;;;;;4976756;28;20109;-69
2022/09/30 02:12:47;;;;;;;5.20;3.30;;;7.90;99.90;;;;;;4989054;28;20058;-69
2022/09/30 02:15:21;;;;;;;7.50;4.00;;;7.90;99.90;;;;;;4982633;28;20042;-69
2022/09/30 02:18:06;;;;;;;6.45;3.83;;;7.90;99.90;;;;;;4981389;28;20030;-69
2022/09/30 02:20:37;;;;;;;10.82;4.13;;;7.90;99.90;;;;;;4983028;28;20105;-69
2022/09/30 02:23:13;;;;;;;5.82;3.83;;;7.90;99.90;;;;;;4975304;28;20093;-70
2022/09/30 02:25:44;;;;;;;5.40;3.60;;;7.90;99.90;;;;;;4974254;28;20070;-69
2022/09/30 02:28:16;;;;;;;5.93;3.42;;;7.90;99.90;;;;;;4970591;28;20086;-69
2022/09/30 02:30:45;;;;;;;6.28;3.65;;;7.80;99.90;;;;;;4986185;28;20178;-68
2022/09/30 02:33:18;;;;;;;6.68;3.40;;;7.80;99.90;;;;;;4986198;28;20161;-69
2022/09/30 02:35:53;;;;;;;6.07;3.17;;;7.80;99.90;;;;;;4985185;28;20027;-68
2022/09/30 02:38:22;;;;;;;6.93;3.58;;;7.80;99.90;;;;;;4978063;28;20038;-69
2022/09/30 02:40:55;;;;;;;7.03;3.50;;;7.80;99.90;;;;;;4969446;28;20023;-70
2022/09/30 02:43:21;;;;;;;7.53;3.55;;;7.80;99.90;;;;;;4989876;28;20600;-68
2022/09/30 02:46:11;;;;;;;6.35;3.08;;;7.80;99.90;;;;;;4976375;28;20046;-69
2022/09/30 02:49:05;;;;;;;6.37;3.03;;;7.80;99.90;;;;;;4969994;28;20376;-69
2022/09/30 02:51:42;;;;;;;4.95;3.10;;;7.70;99.90;;;;;;4988158;28;20406;-70
2022/09/30 02:54:21;;;;;;;4.60;2.70;;;7.70;99.90;;;;;;4973501;28;20065;-70
2022/09/30 02:56:57;;;;;;;4.70;2.97;;;7.60;99.90;;;;;;4984044;28;20069;-69
2022/09/30 02:59:24;;;;;;;5.25;3.28;;;7.60;99.90;;;;;;4989519;28;20465;-70
2022/09/30 03:01:50;;;;;;;4.68;2.75;;;7.60;99.90;;;;;;4989494;28;20398;-70
2022/09/30 03:04:31;;;;;;;4.70;3.38;;;7.60;99.90;;;;;;4989125;28;20042;-69
2022/09/30 03:06:58;;;;;;;5.45;2.85;;;7.60;99.90;;;;;;4972955;28;20042;-69
2022/09/30 03:09:25;;;;;;;3.58;2.60;;;7.60;99.90;;;;;;4979466;28;20030;-70
2022/09/30 03:11:57;;;;;;;6.45;3.13;;;7.60;99.90;;;;;;4980981;28;20390;-69
2022/09/30 03:14:54;;;;;;;3.85;2.45;;;7.60;99.90;;;;;;4976878;28;20031;-69
2022/09/30 03:17:43;;;;;;;7.38;3.53;;;7.50;99.90;;;;;;4975686;28;20039;-70
2022/09/30 03:20:25;;;;;;;4.45;2.50;;;7.50;99.90;;;;;;4976938;28;20038;-69
2022/09/30 03:23:02;;;;;;;6.68;3.08;;;7.40;99.90;;;;;;4969561;28;20033;-70
2022/09/30 03:26:11;;;;;;;5.18;2.72;;;7.40;99.90;;;;;;4976186;28;20030;-70
2022/09/30 03:28:55;;;;;;;4.35;2.70;;;7.40;99.90;;;;;;4984372;28;20035;-69
2022/09/30 03:31:40;;;;;;;3.88;2.47;;;7.40;99.90;;;;;;4953005;28;20035;-69
2022/09/30 03:34:22;;;;;;;5.05;3.28;;;7.40;99.90;;;;;;4936724;29;20039;-69
2022/09/30 03:37:15;;;;;;;5.72;2.90;;;7.30;99.90;;;;;;4982499;28;20030;-71
2022/09/30 03:39:59;;;;;;;4.35;2.78;;;7.30;99.90;;;;;;4989772;28;20034;-71
2022/09/30 03:42:28;;;;;;;4.85;3.13;;;7.30;99.90;;;;;;4984192;28;20110;-69
2022/09/30 03:45:07;;;;;;;5.60;3.15;;;7.30;99.90;;;;;;4991150;28;20035;-69
2022/09/30 03:47:36;;;;;;;5.47;3.13;;;7.20;99.90;;;;;;4992283;28;20034;-70
2022/09/30 03:50:07;;;;;;;6.45;3.72;;;7.30;99.90;;;;;;4992495;28;20816;-69
2022/09/30 03:52:34;;;;;;;;;;;7.30;99.90;;;;;;4980652;28;20034;-69
2022/09/30 03:55:03;;;;;;;4.57;3.00;;;7.30;99.90;;;;;;4992991;28;19965;-69
2022/09/30 03:57:29;;;;;;;5.38;2.90;;;7.30;99.90;;;;;;4979771;28;20038;-69
2022/09/30 03:59:58;;;;;;;4.82;2.95;;;7.30;99.90;;;;;;4983650;28;20034;-69
2022/09/30 04:02:25;;;;;;;5.55;2.90;;;7.30;99.90;;;;;;4972500;28;20034;-69
2022/09/30 04:04:51;;;;;;;6.18;2.90;;;7.30;99.90;;;;;;4981441;28;20041;-70
2022/09/30 04:07:17;;;;;;;4.18;2.70;;;7.20;99.90;;;;;;4991165;28;20422;-70
2022/09/30 04:09:42;;;;;;;5.05;3.08;;;7.20;99.90;;;;;;4990922;28;20117;-69
2022/09/30 04:12:08;;;;;;;4.70;2.80;;;7.20;99.90;;;;;;4991412;28;20121;-68
2022/09/30 04:14:34;;;;;;;5.82;2.90;;;7.20;99.90;;;;;;4991838;28;20031;-70
2022/09/30 04:17:01;;;;;;;4.18;2.53;;;7.10;99.90;;;;;;4977348;28;20027;-70
2022/09/30 04:19:26;;;;;;;4.63;2.50;;;7.10;99.90;;;;;;4986912;28;20403;-70
2022/09/30 04:21:53;;;;;;;6.60;2.95;;;7.10;99.90;;;;;;4984087;28;20041;-70
2022/09/30 04:24:20;;;;;;;5.40;2.72;;;7.10;99.90;;;;;;4990444;28;20038;-69
2022/09/30 04:26:46;;;;;;;6.45;2.85;;;7.00;99.90;;;;;;4991674;28;20088;-70
2022/09/30 04:29:12;;;;;;;6.60;3.03;;;7.00;99.90;;;;;;4990559;28;20031;-71
2022/09/30 04:31:37;;;;;;;5.75;3.20;;;7.00;99.90;;;;;;4990339;28;20038;-69
2022/09/30 04:34:03;;;;;;;5.20;3.50;;;7.00;99.90;;;;;;4991625;28;20034;-69
2022/09/30 04:36:28;;;;;;;5.85;2.92;;;7.00;99.90;;;;;;4974703;28;20033;-70
2022/09/30 04:38:54;;;;;;;5.30;3.08;;;7.00;99.90;;;;;;4987945;28;20030;-70
2022/09/30 04:41:20;;;;;;;4.68;2.90;;;6.90;99.90;;;;;;4980616;28;20062;-71
2022/09/30 04:43:47;;;;;;;5.65;3.22;;;6.90;99.90;;;;;;4979860;28;20026;-70
2022/09/30 04:46:18;;;;;;;5.57;2.67;;;6.90;99.90;;;;;;4984949;28;20046;-69
2022/09/30 04:48:44;;;;;;;7.47;3.05;;;6.90;99.90;;;;;;4979367;28;20034;-69
2022/09/30 04:51:20;;;;;;;6.15;3.30;;;6.90;99.90;;;;;;4970697;28;20078;-69
2022/09/30 04:53:47;;;;;;;8.27;3.85;;;6.90;99.90;;;;;;4971313;28;20114;-69
2022/09/30 04:56:13;;;;;;;6.18;3.60;;;6.90;99.90;;;;;;4972924;28;20082;-70
2022/09/30 04:58:39;;;;;;;6.78;3.58;;;6.90;99.90;;;;;;4986434;28;20494;-69
2022/09/30 05:01:07;;;;;;;8.05;3.78;;;7.00;99.90;;;;;;4970915;28;20031;-70
2022/09/30 05:03:34;;;;;;;6.43;3.63;;;7.00;99.90;;;;;;4975049;28;20086;-69
2022/09/30 05:05:59;;;;;;;7.50;3.67;;;7.10;99.90;;;;;;4974030;28;20046;-70
2022/09/30 05:08:25;;;;;;;7.15;3.58;;;7.00;99.90;;;;;;4981814;28;20407;-71
2022/09/30 05:10:57;;;;;;;6.38;3.58;;;7.10;99.90;;;;;;4985594;28;20069;-71
2022/09/30 05:13:33;;;;;;;6.15;3.35;;;7.10;99.90;;;;;;4978150;28;20048;-71
2022/09/30 05:16:00;;;;;;;5.80;3.30;;;7.00;99.90;;;;;;4978001;28;20507;-70
2022/09/30 05:18:26;;;;;;;5.38;3.08;;;7.00;99.90;;;;;;4986127;28;20054;-70
2022/09/30 05:20:53;;;;;;;6.45;3.65;;;7.00;99.90;;;;;;4986718;28;20497;-69
2022/09/30 05:23:19;;;;;;;8.80;3.55;;;7.00;99.90;;;;;;4978609;28;20050;-70
2022/09/30 05:25:46;;;;;;;6.47;3.90;;;7.00;99.90;;;;;;4983471;28;20034;-71
2022/09/30 05:28:12;;;;;;;6.18;3.45;;;7.00;99.90;;;;;;4985597;28;20045;-70
2022/09/30 05:30:38;;;;;;;8.38;4.28;;;7.00;99.90;;;;;;4979086;28;20035;-70
2022/09/30 05:33:03;;;;;;;8.00;3.95;;;7.00;99.90;;;;;;4978854;28;20053;-70
2022/09/30 05:35:29;;;;;;;5.35;3.22;;;7.10;99.90;;;;;;4981843;28;20042;-70
2022/09/30 05:37:55;;;;;;;7.28;4.18;;;7.10;99.90;;;;;;4979533;28;20077;-69
2022/09/30 05:40:20;;;;;;;6.20;3.20;;;7.10;99.90;;;;;;4986237;28;20131;-70
2022/09/30 05:42:46;;;;;;;6.55;3.70;;;7.10;99.90;;;;;;4978606;28;20038;-70
2022/09/30 05:45:12;;;;;;;5.78;3.75;;;7.10;99.90;;;;;;4982631;28;20496;-69
2022/09/30 05:47:38;;;;;;;5.25;2.90;;;7.10;99.90;;;;;;4976923;28;20035;-70
2022/09/30 05:50:04;;;;;;;5.55;3.55;;;7.00;99.90;;;;;;4980587;28;20030;-69
2022/09/30 05:52:29;;;;;;;6.22;3.00;;;7.10;99.90;;;;;;4980252;28;20125;-70
2022/09/30 05:54:56;;;;;;;10.73;4.30;;;7.00;99.90;;;;;;4979012;28;20109;-70
2022/09/30 05:57:22;;;;;;;9.63;3.97;;;7.10;99.90;;;;;;4982734;28;20097;-70
2022/09/30 05:59:47;;;;;;;6.57;4.15;;;7.10;99.90;;;;;;4979095;28;20071;-70
2022/09/30 06:02:13;;;;;;;6.47;3.85;;;7.20;99.90;;;;;;4980538;28;20038;-70
2022/09/30 06:04:38;;;;;;;5.22;3.28;;;7.30;99.90;;;;;;4978856;28;20062;-69
2022/09/30 06:07:05;;;;;;;8.70;3.95;;;7.30;99.90;;;;;;4981195;28;20042;-70
2022/09/30 06:09:31;;;;;;;7.45;3.83;;;7.40;99.90;;;;;;4978389;28;20030;-70
2022/09/30 06:11:58;;;;;;;6.03;3.33;;;7.40;99.90;;;;;;4981899;28;20501;-70
2022/09/30 06:14:23;;;;;;;8.80;3.72;;;7.40;99.90;;;;;;4978375;28;20502;-70
2022/09/30 06:16:49;;;;;;;8.50;3.67;;;7.40;99.90;;;;;;4981111;28;20026;-69
2022/09/30 06:19:14;;;;;;;7.90;3.65;;;7.40;99.90;;;;;;4976784;28;20066;-69
2022/09/30 06:21:40;;;;;;;9.57;4.03;;;7.50;99.90;;;;;;4979977;28;20030;-70
2022/09/30 06:24:11;;;;;;;8.85;4.53;;;7.50;99.90;;;;;;4979378;28;20549;-70
2022/09/30 06:26:38;;;;;;;7.80;4.20;;;7.60;99.90;;;;;;4980767;28;20046;-71
2022/09/30 06:29:03;;;;;;;7.20;4.10;;;7.60;99.90;;;;;;4978958;28;20462;-70
2022/09/30 06:31:30;;;;;;;8.77;4.55;;;7.70;99.90;;;;;;4979917;28;20042;-70
2022/09/30 06:33:56;;;;;;;10.32;4.57;;;7.70;99.90;;;;;;4985033;28;20491;-70
2022/09/30 06:36:22;;;;;;;7.38;4.40;;;7.80;99.90;;;;;;4981718;28;20044;-70
2022/09/30 06:38:50;;;;;;;9.35;5.15;;;7.90;99.90;;;;;;4978482;28;20104;-70
2022/09/30 06:41:16;;;;;;;11.38;5.32;;;8.00;99.90;;;;;;4983424;28;20546;-70
2022/09/30 06:43:42;;;;;;;11.65;5.95;;;8.10;99.90;;;;;;4986346;28;20027;-70
2022/09/30 06:46:08;;;;;;;14.52;5.97;;;8.20;99.90;;;;;;4985878;28;20053;-75
2022/09/30 06:48:33;;;;;;;12.98;5.65;;;8.30;99.90;;;;;;4984965;28;20035;-70
2022/09/30 06:50:59;;;;;;;11.60;6.43;;;8.30;99.90;;;;;;4985686;28;20057;-70
2022/09/30 06:53:26;;;;;;;11.88;6.15;;;8.40;99.90;;;;;;4986784;28;20038;-70
2022/09/30 06:55:56;;;;;;;11.50;6.20;;;8.50;99.90;;;;;;4984862;28;20038;-70
2022/09/30 06:58:25;;;;;;;12.98;6.70;;;8.60;99.90;;;;;;4985531;28;20058;-74
2022/09/30 07:01:03;;;;;;;15.00;8.40;;;8.70;99.90;;;;;;4991130;28;20027;-70
2022/09/30 07:03:31;;;;;;;14.82;7.63;;;8.80;99.90;;;;;;4988986;28;20136;-70
2022/09/30 07:05:59;;;;;;;15.77;7.95;;;9.00;99.90;;;;;;4983455;28;20095;-70
2022/09/30 07:08:30;;;;;;;14.75;7.28;;;9.10;99.90;;;;;;4977413;28;20582;-70
2022/09/30 07:10:57;;;;;;;15.80;7.38;;;9.30;99.90;;;;;;4980519;28;20038;-70
2022/09/30 07:13:23;;;;;;;17.17;8.25;;;9.50;99.90;;;;;;4984379;28;20030;-70
2022/09/30 07:15:53;;;;;;;16.15;7.97;;;9.60;99.90;;;;;;4981913;28;20043;-70
2022/09/30 07:18:23;;;;;;;14.20;7.30;;;9.80;99.90;;;;;;4982840;28;20113;-70
2022/09/30 07:20:53;;;;;;;14.93;8.60;;;9.90;99.90;;;;;;4981955;28;20057;-69
2022/09/30 07:23:19;;;;;;;18.08;8.45;;;10.00;99.90;;;;;;4984338;28;20765;-70
2022/09/30 07:25:50;;;;;;;14.90;7.47;;;10.10;99.90;;;;;;4977854;28;20042;-70
2022/09/30 07:28:16;;;;;;;14.85;8.18;;;10.30;99.90;;;;;;4983441;28;20034;-70
2022/09/30 07:30:42;;;;;;;14.65;8.18;;;10.40;99.90;;;;;;4984240;28;20042;-69
2022/09/30 07:33:09;;;;;;;14.07;7.50;;;10.50;99.90;;;;;;4982413;28;20030;-69
2022/09/30 07:35:34;;;;;;;14.85;7.90;;;10.60;99.90;;;;;;4981228;28;20045;-70
2022/09/30 07:38:01;;;;;;;13.05;6.47;;;10.70;99.90;;;;;;4984758;28;20398;-70
2022/09/30 07:40:30;;;;;;;15.52;7.40;;;10.80;99.90;;;;;;4980922;28;20061;-70
2022/09/30 07:42:56;;;;;;;12.43;6.25;;;11.00;99.90;;;;;;4974932;28;20518;-69
2022/09/30 07:45:22;;;;;;;15.07;7.18;;;11.10;99.90;;;;;;4981884;28;20186;-70
2022/09/30 07:47:47;;;;;;;15.13;6.60;;;11.30;99.90;;;;;;4983366;28;20570;-69
2022/09/30 07:50:14;;;;;;;10.75;5.90;;;11.40;99.90;;;;;;4977266;28;20050;-69
2022/09/30 07:52:40;;;;;;;9.60;5.13;;;11.50;99.90;;;;;;4980708;28;20042;-69
2022/09/30 07:55:06;;;;;;;12.05;5.97;;;11.50;99.90;;;;;;4983535;28;20042;-69
2022/09/30 07:57:32;;;;;;;18.42;6.50;;;11.60;99.90;;;;;;4979539;28;20027;-70
2022/09/30 07:59:57;;;;;;;9.40;4.72;;;11.70;99.90;;;;;;4977199;28;20661;-70
2022/09/30 08:02:23;;;;;;;8.43;4.43;;;11.80;99.90;;;;;;4976509;28;20081;-71
2022/09/30 08:04:49;;;;;;;9.02;5.15;;;11.80;99.90;;;;;;4980765;28;20162;-70
2022/09/30 08:07:16;;;;;;;10.30;6.07;;;11.90;99.90;;;;;;4978391;28;20042;-70
2022/09/30 08:09:42;;;;;;;9.60;5.45;;;12.00;99.90;;;;;;4981530;28;20038;-70
2022/09/30 08:12:08;;;;;;;10.02;4.60;;;12.10;99.90;;;;;;4977926;28;20034;-69
2022/09/30 08:14:33;;;;;;;11.40;5.85;;;12.10;99.90;;;;;;4980197;28;20038;-70
2022/09/30 08:16:59;;;;;;;9.80;5.38;;;12.30;99.90;;;;;;4981673;28;20128;-70
2022/09/30 08:19:26;;;;;;;12.23;5.30;;;12.40;99.90;;;;;;4978663;28;20035;-70
2022/09/30 08:21:53;;;;;;;12.57;5.75;;;12.60;99.90;;;;;;4977220;28;20023;-70
2022/09/30 08:24:19;;;;;;;11.95;5.55;;;12.80;99.90;;;;;;4981250;28;20034;-70
2022/09/30 08:26:45;;;;;;;8.93;4.32;;;13.00;99.90;;;;;;4981451;28;20046;-70
2022/09/30 08:29:12;;;;;;;10.00;4.75;;;13.30;99.90;;;;;;4980056;28;20096;-70
2022/09/30 08:31:38;;;;;;;7.47;4.35;;;13.50;99.90;;;;;;4984353;28;20039;-70
2022/09/30 08:34:04;;;;;;;10.27;4.97;;;13.60;99.90;;;;;;4978998;28;20049;-71
2022/09/30 08:36:29;;;;;;;9.10;4.35;;;13.70;99.90;;;;;;4979282;28;20034;-70
2022/09/30 08:38:56;;;;;;;7.72;3.58;;;13.70;99.90;;;;;;4981538;28;20045;-70
2022/09/30 08:41:45;;;;;;;6.10;3.50;;;13.70;99.90;;;;;;4978805;28;20506;-70
2022/09/30 08:44:29;;;;;;;9.38;4.63;;;13.60;99.90;;;;;;4978367;28;20086;-69
2022/09/30 08:47:19;;;;;;;8.43;4.05;;;13.40;99.90;;;;;;4974224;28;20154;-70
2022/09/30 08:49:53;;;;;;;6.53;3.30;;;13.20;99.90;;;;;;4976399;28;20041;-70
2022/09/30 08:52:25;;;;;;;6.68;3.20;;;13.10;99.90;;;;;;4974660;28;20039;-70
2022/09/30 08:54:53;;;;;;;9.70;4.75;;;13.10;99.90;;;;;;4980076;28;20646;-70
2022/09/30 08:57:19;;;;;;;7.10;4.28;;;13.10;99.90;;;;;;4974630;28;20451;-70
2022/09/30 08:59:53;;;;;;;6.97;4.28;;;13.20;99.90;;;;;;4972902;28;20031;-69
2022/09/30 09:02:53;;;;;;;6.85;3.63;;;13.40;99.90;;;;;;4981698;28;20100;-69
2022/09/30 09:05:55;;;;;;;6.35;3.45;;;13.50;99.90;;;;;;4972104;28;20058;-70
2022/09/30 09:08:47;;;;;;;4.72;3.38;;;13.60;99.90;;;;;;4974365;28;20031;-70
2022/09/30 09:11:37;;;;;;;4.97;3.22;;;13.70;99.90;;;;;;4977954;28;20143;-70
2022/09/30 09:14:30;;;;;;;4.65;2.80;;;13.80;99.90;;;;;;4978819;28;20174;-70
2022/09/30 09:17:13;;;;;;;5.72;3.22;;;13.90;99.90;;;;;;4975297;28;20058;-70
2022/09/30 09:19:52;;;;;;;5.45;2.85;;;13.90;99.90;;;;;;4979133;28;20034;-70
2022/09/30 09:22:19;;;;;;;5.68;3.03;;;14.00;99.90;;;;;;4980893;28;20051;-71
2022/09/30 09:24:49;;;;;;;5.20;2.60;;;14.20;99.90;;;;;;4976252;28;20045;-70
2022/09/30 09:27:44;;;;;;;4.07;2.38;;;14.30;99.90;;;;;;4983418;28;20030;-70
2022/09/30 09:30:14;;;;;;;4.53;2.78;;;14.60;99.90;;;;;;4982076;28;20066;-69
2022/09/30 09:32:41;;;;;;;4.78;2.50;;;14.80;99.90;;;;;;4981143;28;20031;-71
2022/09/30 09:35:16;;;;;;;3.15;2.05;;;14.90;99.90;;;;;;4981208;28;20508;-71
2022/09/30 09:38:27;;;;;;;2.85;1.85;;;15.00;99.90;;;;;;4979992;28;20129;-71
2022/09/30 09:41:24;;;;;;;3.67;1.98;;;15.10;99.90;;;;;;4977563;28;20046;-70
2022/09/30 09:43:59;;;;;;;3.13;1.55;;;15.20;99.90;;;;;;4975294;28;20125;-69
2022/09/30 09:46:47;;;;;;;5.45;1.23;;;15.20;99.90;;;;;;4982066;28;20153;-70
2022/09/30 09:49:12;;;;;;;2.65;1.20;;;15.30;99.90;;;;;;4978595;28;20046;-70
2022/09/30 09:51:46;;;;;;;2.35;1.30;;;15.30;99.90;;;;;;4978517;28;20042;-70
2022/09/30 09:54:14;;;;;;;2.25;1.02;;;15.40;99.90;;;;;;4980020;28;20458;-71
2022/09/30 09:56:40;;;;;;;2.17;0.70;;;15.30;99.90;;;;;;4984318;28;20392;-69
2022/09/30 09:59:16;;;;;;;1.27;0.70;;;15.30;99.90;;;;;;4978622;28;20044;-71
2022/09/30 10:01:50;;;;;;;0.98;0.45;;;15.40;99.90;;;;;;4981851;28;20034;-71
2022/09/30 10:04:26;;;;;;;1.45;0.60;;;15.40;99.90;;;;;;4973316;28;20407;-69
2022/09/30 10:07:00;;;;;;;1.63;0.68;;;15.60;99.90;;;;;;4973926;28;20054;-70
2022/09/30 10:09:33;;;;;;;1.20;0.52;;;15.60;99.90;;;;;;4984352;28;20038;-71
2022/09/30 10:12:05;;;;;;;2.88;0.50;;;15.60;99.90;;;;;;4982858;28;20428;-71
2022/09/30 10:14:50;;;;;;;3.28;0.50;;;15.70;99.90;;;;;;4977500;28;20062;-70
2022/09/30 10:17:25;;;;;;;1.00;0.40;;;15.70;99.90;;;;;;4962992;28;20027;-72
2022/09/30 10:19:54;;;;;;;0.95;0.50;;;15.60;99.90;;;;;;4970729;28;20038;-70
2022/09/30 10:22:26;;;;;;;1.30;0.50;;;15.70;99.90;;;;;;4979758;28;20549;-69
2022/09/30 10:25:09;;;;;;;0.70;0.38;;;15.60;99.90;;;;;;4976993;28;20043;-71
2022/09/30 10:27:35;;;;;;;0.82;0.38;;;15.70;99.90;;;;;;4983537;28;20030;-71
2022/09/30 10:30:00;;;;;;;1.55;0.38;;;15.80;99.90;;;;;;4980320;28;20040;-71
2022/09/30 10:32:28;;;;;;;0.90;0.50;;;15.70;99.90;;;;;;4979130;28;20422;-69
2022/09/30 10:35:01;;;;;;;0.57;0.47;;;15.70;99.90;;;;;;4978559;28;20496;-69
2022/09/30 10:37:26;;;;;;;1.25;0.60;;;15.80;99.90;;;;;;4977756;28;20034;-69
2022/09/30 10:40:00;;;;;;;0.90;0.47;;;15.90;99.90;;;;;;4982240;28;20034;-69
2022/09/30 10:42:30;;;;;;;0.80;0.40;;;15.80;99.90;;;;;;4975107;28;20117;-69
2022/09/30 10:45:24;;;;;;;2.30;0.40;;;15.90;99.90;;;;;;4981385;28;20027;-71
2022/09/30 10:47:52;;;;;;;0.93;0.40;;;15.80;99.90;;;;;;4968542;28;20260;-70
2022/09/30 10:50:21;;;;;;;0.98;0.40;;;15.90;99.90;;;;;;4981690;28;20133;-70
2022/09/30 10:52:55;;;;;;;0.45;0.30;;;15.80;99.90;;;;;;4977425;28;20039;-70
2022/09/30 10:55:20;;;;;;;0.77;0.40;;;15.90;99.90;;;;;;4978612;28;20047;-69
2022/09/30 10:57:49;;;;;;;1.33;0.50;;;15.90;99.90;;;;;;4980585;28;20039;-71
2022/09/30 11:00:18;;;;;;;3.65;0.73;;;15.90;99.90;;;;;;4981406;28;20440;-69
2022/09/30 11:03:13;;;;;;;2.28;1.05;;;15.90;99.90;;;;;;4980585;28;20039;-70
2022/09/30 11:05:44;;;;;;;1.50;0.77;;;16.00;99.90;;;;;;4979190;28;20117;-70
2022/09/30 11:08:29;;;;;;;1.77;0.93;;;16.00;99.90;;;;;;4972303;28;20039;-70
2022/09/30 11:11:02;;;;;;;2.83;0.85;;;16.00;99.90;;;;;;4979323;28;20035;-70
2022/09/30 11:13:48;;;;;;;2.25;0.77;;;15.90;99.90;;;;;;4979031;28;20050;-70
2022/09/30 11:16:44;;;;;;;1.73;0.68;;;15.90;99.90;;;;;;4978280;28;20030;-69
2022/09/30 11:19:22;;;;;;;2.53;1.13;;;15.90;99.90;;;;;;4988258;28;20031;-70
2022/09/30 11:22:30;;;;;;;2.58;0.75;;;15.90;99.90;;;;;;4984607;28;20112;-70
2022/09/30 11:24:56;;;;;;;2.45;0.57;;;16.00;99.90;;;;;;4976788;28;20031;-70
2022/09/30 11:27:41;;;;;;;1.40;0.70;;;16.10;99.90;;;;;;4977078;28;20606;-70
2022/09/30 11:30:24;;;;;;;0.80;0.40;;;16.10;99.90;;;;;;4983910;28;20041;-70
2022/09/30 11:33:11;;;;;;;1.42;0.30;;;16.20;99.90;;;;;;4979947;28;20086;-70
2022/09/30 11:36:04;;;;;;;0.70;0.30;;;16.10;99.90;;;;;;4970485;28;20495;-70
2022/09/30 11:38:44;;;;;;;0.40;0.17;;;15.90;99.90;;;;;;4974433;28;20039;-71
2022/09/30 11:41:13;;;;;;;2.90;0.40;;;15.80;99.90;;;;;;4984204;28;20797;-70
2022/09/30 11:43:49;;;;;;;2.25;0.50;;;15.60;99.90;;;;;;4971997;28;20049;-70
2022/09/30 11:46:38;;;;;;;2.83;0.30;;;15.60;99.90;;;;;;4972202;28;20043;-70
2022/09/30 11:49:36;;;;;;;0.70;0.30;;;15.50;99.90;;;;;;4981173;28;20045;-70
2022/09/30 11:52:41;;;;;;;1.02;0.38;;;15.70;99.90;;;;;;4980577;28;20042;-70
2022/09/30 11:55:36;;;;;;;1.67;0.20;;;15.80;99.90;;;;;;4967781;28;20037;-70
2022/09/30 11:58:04;;;;;;;0.68;0.22;;;15.80;99.90;;;;;;4981502;28;20130;-70
2022/09/30 12:00:32;;;;;;;1.88;0.32;;;15.90;99.90;;;;;;4983706;28;20030;-71
2022/09/30 12:03:38;;;;;;;1.17;0.30;;;16.00;99.90;;;;;;4985995;28;20435;-69
2022/09/30 12:06:20;;;;;;;0.45;0.20;;;16.00;99.90;;;;;;4978465;28;20042;-70
2022/09/30 12:08:56;;;;;;;3.63;0.50;;;16.10;99.90;;;;;;4977766;28;20046;-69
2022/09/30 12:11:27;;;;;;;1.48;0.40;;;16.20;99.90;;;;;;4983770;28;20049;-69
2022/09/30 12:13:59;;;;;;;6.60;0.77;;;16.10;99.90;;;;;;4981669;28;20043;-70
2022/09/30 12:16:30;;;;;;;0.82;0.40;;;16.20;99.90;;;;;;4976226;28;20495;-72
2022/09/30 12:19:03;;;;;;;2.72;0.85;;;16.20;99.90;;;;;;4978761;28;20114;-69
2022/09/30 12:21:39;;;;;;;2.42;0.65;;;16.10;99.90;;;;;;4975426;28;20451;-71
2022/09/30 12:24:22;;;;;;;2.00;0.60;;;16.00;99.90;;;;;;4973950;28;20507;-70
2022/09/30 12:26:47;;;;;;;1.52;0.68;;;16.00;99.90;;;;;;4973143;28;20035;-71
2022/09/30 12:32:39;;;;;;;3.08;1.40;;;15.90;99.90;;;;;;4975776;28;20074;-72
2022/09/30 12:35:28;;;;;;;5.78;1.00;;;15.90;99.90;;;;;;4972244;28;20113;-70
2022/09/30 12:38:24;;;;;;;2.05;0.77;;;16.00;99.90;;;;;;4979516;28;20049;-70
2022/09/30 12:41:01;;;;;;;3.22;1.02;;;16.00;99.90;;;;;;4946759;28;20435;-69
2022/09/30 12:43:46;;;;;;;2.20;0.85;;;16.00;99.90;;;;;;4976849;28;20030;-71
2022/09/30 12:46:21;;;;;;;3.17;1.27;;;16.10;99.90;;;;;;4958673;28;20042;-70
2022/09/30 12:48:52;;;;;;;2.63;1.30;;;16.20;99.90;;;;;;4973566;28;20491;-70
2022/09/30 12:51:41;;;;;;;4.05;1.10;;;16.20;99.90;;;;;;4974635;28;20050;-70
2022/09/30 12:54:15;;;;;;;2.65;0.88;;;16.20;99.90;;;;;;4975055;28;20039;-70
2022/09/30 12:56:43;;;;;;;2.38;1.30;;;16.20;99.90;;;;;;4972090;28;20038;-70
2022/09/30 12:59:09;;;;;;;5.10;1.38;;;16.20;99.90;;;;;;4978774;28;20126;-70
2022/09/30 13:01:37;;;;;;;1.48;0.90;;;16.10;99.90;;;;;;4980473;28;20129;-70
2022/09/30 13:04:02;;;;;;;2.85;1.00;;;16.20;99.90;;;;;;4977992;28;20427;-70
2022/09/30 13:06:46;;;;;;;3.17;0.90;;;16.20;99.90;;;;;;4976101;28;20088;-71
2022/09/30 13:09:15;;;;;;;4.28;1.13;;;16.20;99.90;;;;;;4980850;28;20506;-70
2022/09/30 13:11:43;;;;;;;1.65;0.80;;;16.20;99.90;;;;;;4977660;28;20035;-70
2022/09/30 13:14:38;;;;;;;2.20;0.95;;;16.30;99.90;;;;;;4981813;28;20045;-70
2022/09/30 13:17:06;;;;;;;2.42;1.08;;;16.40;99.90;;;;;;4977853;28;20034;-70
2022/09/30 13:19:47;;;;;;;3.95;0.75;;;16.40;99.90;;;;;;4973940;28;20050;-70
2022/09/30 13:22:23;;;;;;;1.80;0.80;;;16.40;99.90;;;;;;4970843;28;20066;-69
2022/09/30 13:27:43;;;;;;;1.83;0.82;;;16.50;99.90;;;;;;4974366;28;20067;-69